Time;durP1;ratioP1;P1;durP2;ratioP2;P2;SDS_P1;SDS_P2;PMS_P1;PMS_P2;Temp;Humidity;BMP_temperature;BMP_pressure;BME280_temperature;BME280_humidity;BME280_pressure;Samples;Min_cycle;Max_cycle;Signal;HPM_P1;HPM_P2
2022/12/14 00:01:43;;;;;;;;;;;2.40;75.70;;;;;;5047556;28;19921;-90
2022/12/14 00:04:09;;;;;;;;;;;2.40;75.70;;;;;;5030971;28;19987;-89
2022/12/14 00:06:34;;;;;;;;;;;2.40;75.80;;;;;;5030957;28;19952;-90
2022/12/14 00:09:01;;;;;;;;;;;2.30;75.80;;;;;;5031535;28;20008;-89
2022/12/14 00:11:27;;;;;;;;;;;2.30;75.70;;;;;;5031649;28;19925;-91
2022/12/14 00:13:54;;;;;;;;;;;2.30;75.80;;;;;;5031658;28;20316;-90
2022/12/14 00:16:21;;;;;;;;;;;2.30;75.80;;;;;;5036291;28;20000;-90
2022/12/14 00:18:51;;;;;;;;;;;2.30;75.80;;;;;;5055581;28;19944;-90
2022/12/14 00:21:16;;;;;;;;;;;2.30;75.80;;;;;;5055590;28;19909;-89
2022/12/14 00:23:43;;;;;;;;;;;2.30;75.80;;;;;;5053737;28;19905;-88
2022/12/14 00:26:13;;;;;;;;;;;2.30;75.70;;;;;;5030904;28;20384;-88
2022/12/14 00:28:38;;;;;;;;;;;2.30;75.60;;;;;;5015443;28;19920;-90
2022/12/14 00:31:04;;;;;;;;;;;2.30;75.70;;;;;;5031911;28;20280;-90
2022/12/14 00:33:30;;;;;;;;;;;2.20;75.70;;;;;;5015364;28;20362;-89
2022/12/14 00:35:55;;;;;;;;;;;2.20;75.70;;;;;;5031900;28;19925;-89
2022/12/14 00:38:21;;;;;;;;;;;2.20;75.70;;;;;;5048537;28;19925;-89
2022/12/14 00:40:46;;;;;;;;;;;2.20;75.70;;;;;;5031382;28;19921;-90
2022/12/14 00:43:12;;;;;;;;;;;2.10;75.70;;;;;;5050080;28;19921;-89
2022/12/14 00:45:37;;;;;;;;;;;2.10;75.70;;;;;;5048751;28;19921;-89
2022/12/14 00:48:03;;;;;;;;;;;2.10;75.80;;;;;;5056338;28;19921;-90
2022/12/14 00:50:28;;;;;;;;;;;2.10;75.90;;;;;;5039561;28;19932;-89
2022/12/14 00:52:54;;;;;;;;;;;2.10;75.80;;;;;;5035022;28;19920;-90
2022/12/14 00:55:19;;;;;;;;;;;2.10;75.90;;;;;;5034921;28;19921;-90
2022/12/14 00:57:46;;;;;;;;;;;2.10;75.90;;;;;;5034218;28;19974;-90
2022/12/14 01:00:11;;;;;;;;;;;2.10;75.90;;;;;;5051124;28;19975;-89
2022/12/14 01:02:37;;;;;;;;;;;2.10;75.80;;;;;;5034280;28;19921;-89
2022/12/14 01:05:02;;;;;;;;;;;2.10;75.70;;;;;;5050598;28;20011;-89
2022/12/14 01:07:28;;;;;;;;;;;2.20;75.60;;;;;;5016842;28;19944;-89
2022/12/14 01:09:53;;;;;;;;;;;2.10;75.50;;;;;;5016737;28;19925;-90
2022/12/14 01:12:19;;;;;;;;;;;2.10;75.60;;;;;;5050203;28;20381;-89
2022/12/14 01:14:45;;;;;;;;;;;2.10;75.50;;;;;;5033791;28;19921;-89
2022/12/14 01:17:11;;;;;;;;;;;2.10;75.50;;;;;;5017322;28;19925;-90
2022/12/14 01:19:36;;;;;;;;;;;2.10;75.50;;;;;;5033538;28;19921;-89
2022/12/14 01:22:02;;;;;;;;;;;2.00;75.50;;;;;;5033159;28;20387;-90
2022/12/14 01:24:27;;;;;;;;;;;2.00;75.60;;;;;;5033229;28;20341;-89
2022/12/14 01:26:53;;;;;;;;;;;1.90;75.50;;;;;;5032857;28;19988;-89
2022/12/14 01:29:18;;;;;;;;;;;1.90;75.70;;;;;;5049394;28;19968;-89
2022/12/14 01:31:44;;;;;;;;;;;1.80;75.70;;;;;;5032561;28;19921;-89
2022/12/14 01:34:10;;;;;;;;;;;1.80;75.90;;;;;;5033002;28;20011;-89
2022/12/14 01:36:36;;;;;;;;;;;1.80;75.90;;;;;;5032473;28;19988;-89
2022/12/14 01:39:03;;;;;;;;;;;1.90;75.90;;;;;;5033420;28;20551;-90
2022/12/14 01:41:34;;;;;;;;;;;1.90;75.80;;;;;;5049090;28;19984;-89
2022/12/14 01:44:23;;;;;;;;;;;1.90;75.70;;;;;;5016374;28;19921;-89
2022/12/14 01:46:50;;;;;;;;;;;1.80;75.60;;;;;;5013177;28;19931;-89
2022/12/14 01:49:21;;;;;;;;;;;1.80;75.70;;;;;;5032341;28;19944;-89
2022/12/14 01:51:51;;;;;;;;;;;1.70;75.70;;;;;;5031888;28;19928;-89
2022/12/14 01:54:17;;;;;;;;;;;1.70;75.70;;;;;;5015190;28;19932;-89
2022/12/14 01:56:43;;;;;;;;;;;1.70;75.80;;;;;;5015818;28;19932;-89
2022/12/14 01:59:13;;;;;;;;;;;1.60;75.80;;;;;;5049030;28;19921;-87
2022/12/14 02:01:39;;;;;;;;;;;1.60;75.80;;;;;;5031855;28;19948;-88
2022/12/14 02:04:05;;;;;;;;;;;1.60;75.90;;;;;;5031898;28;19921;-87
2022/12/14 02:06:35;;;;;;;;;;;1.60;76.00;;;;;;5015766;28;20392;-88
2022/12/14 02:09:03;;;;;;;;;;;1.50;75.90;;;;;;5015497;28;19921;-89
2022/12/14 02:11:41;;;;;;;;;;;1.50;76.00;;;;;;5014551;28;19928;-88
2022/12/14 02:14:07;;;;;;;;;;;1.50;76.00;;;;;;5031666;28;20401;-89
2022/12/14 02:16:32;;;;;;;;;;;1.50;76.00;;;;;;5031682;28;19925;-89
2022/12/14 02:18:58;;;;;;;;;;;1.40;75.90;;;;;;5031276;28;19971;-89
2022/12/14 02:21:23;;;;;;;;;;;1.40;76.00;;;;;;5047875;28;20375;-89
2022/12/14 02:24:15;;;;;;;;;;;1.40;75.90;;;;;;5015151;28;19928;-88
2022/12/14 02:26:41;;;;;;;;;;;1.40;76.00;;;;;;5031197;28;19944;-89
2022/12/14 02:29:25;;;;;;;;;;;1.40;76.50;;;;;;5031222;28;20369;-89
2022/12/14 02:32:02;;;;;;;;;;;1.40;75.90;;;;;;5030899;28;19921;-89
2022/12/14 02:34:31;;;;;;;;;;;1.40;75.80;;;;;;5030689;28;20040;-89
2022/12/14 02:37:01;;;;;;;;;;;1.30;75.80;;;;;;5030817;28;19925;-87
2022/12/14 02:39:39;;;;;;;;;;;1.30;75.90;;;;;;5047732;28;19944;-88
2022/12/14 02:42:07;;;;;;;;;;;1.40;75.90;;;;;;5030403;28;19968;-88
2022/12/14 02:44:45;;;;;;;;;;;1.40;75.80;;;;;;5047158;28;19921;-88
2022/12/14 02:47:28;;;;;;;;;;;1.40;75.80;;;;;;5030023;28;20386;-88
2022/12/14 02:49:54;;;;;;;;;;;1.40;75.70;;;;;;5046826;28;19924;-88
2022/12/14 02:52:19;;;;;;;;;;;1.40;75.70;;;;;;5047117;28;20394;-89
2022/12/14 02:54:54;;;;;;;;;;;1.40;75.50;;;;;;5047277;28;19974;-88
2022/12/14 02:57:27;;;;;;;;;;;1.50;75.50;;;;;;5046810;28;19970;-88
2022/12/14 02:59:55;;;;;;;;;;;1.40;75.40;;;;;;5029813;28;19921;-88
2022/12/14 03:02:21;;;;;;;;;;;1.40;75.40;;;;;;5013805;28;20282;-89
2022/12/14 03:04:47;;;;;;;;;;;1.30;75.50;;;;;;5030363;28;19921;-89
2022/12/14 03:07:31;;;;;;;;;;;1.30;75.50;;;;;;5029930;28;20019;-88
2022/12/14 03:10:03;;;;;;;;;;;1.30;75.50;;;;;;5030185;28;19943;-89
2022/12/14 03:12:29;;;;;;;;;;;1.30;75.50;;;;;;5030067;28;19972;-89
2022/12/14 03:14:55;;;;;;;;;;;1.30;75.60;;;;;;5029973;28;19972;-88
2022/12/14 03:17:24;;;;;;;;;;;1.20;75.30;;;;;;5029966;28;19932;-88
2022/12/14 03:19:52;;;;;;;;;;;1.10;75.40;;;;;;5029869;28;19967;-89
2022/12/14 03:22:25;;;;;;;;;;;1.10;75.50;;;;;;5046838;28;19921;-87
2022/12/14 03:24:53;;;;;;;;;;;1.10;75.60;;;;;;5013629;28;19921;-88
2022/12/14 03:27:21;;;;;;;;;;;1.00;75.40;;;;;;5029632;28;19925;-88
2022/12/14 03:29:58;;;;;;;;;;;1.00;75.40;;;;;;5029419;28;19924;-88
2022/12/14 03:32:24;;;;;;;;;;;0.90;75.40;;;;;;5012583;28;19921;-88
2022/12/14 03:34:56;;;;;;;;;;;0.80;75.40;;;;;;5029710;28;20370;-88
2022/12/14 03:37:25;;;;;;;;;;;0.80;75.50;;;;;;5029545;28;19971;-89
2022/12/14 03:39:51;;;;;;;;;;;0.80;75.50;;;;;;5046323;28;19928;-87
2022/12/14 03:42:22;;;;;;;;;;;0.70;75.40;;;;;;5029151;28;19924;-88
2022/12/14 03:45:07;;;;;;;;;;;0.70;75.20;;;;;;5013077;28;20008;-87
2022/12/14 03:47:44;;;;;;;;;;;0.60;75.20;;;;;;5029209;28;19928;-88
2022/12/14 03:50:14;;;;;;;;;;;0.40;75.50;;;;;;5028478;28;19944;-87
2022/12/14 03:52:59;;;;;;;;;;;0.40;75.90;;;;;;5029186;28;19921;-88
2022/12/14 03:55:43;;;;;;;;;;;0.40;75.90;;;;;;5028947;28;19921;-88
2022/12/14 03:58:27;;;;;;;;;;;0.50;75.80;;;;;;5029344;28;19944;-87
2022/12/14 04:01:05;;;;;;;;;;;0.40;75.70;;;;;;5029076;28;19928;-88
2022/12/14 04:03:40;;;;;;;;;;;0.40;75.60;;;;;;5045426;28;19928;-88
2022/12/14 04:06:13;;;;;;;;;;;0.40;75.50;;;;;;5012799;28;19943;-88
2022/12/14 04:08:40;;;;;;;;;;;0.40;75.60;;;;;;5012720;28;19921;-87
2022/12/14 04:19:43;;;;;;;;;;;0.30;75.40;;;;;;5032517;28;19928;-88
2022/12/14 04:22:11;;;;;;;;;;;0.30;75.30;;;;;;5015996;28;19921;-88
2022/12/14 04:27:47;;;;;;;;;;;0.20;75.40;;;;;;5032603;28;20584;-88
2022/12/14 04:30:13;;;;;;;;;;;0.10;75.60;;;;;;5031993;28;19925;-88
2022/12/14 04:32:50;;;;;;;;;;;0.00;75.70;;;;;;5032421;28;20377;-88
2022/12/14 04:35:20;;;;;;;;;;;0.00;75.70;;;;;;5032614;28;20015;-87
2022/12/14 04:37:50;;;;;;;;;;;-0.10;75.80;;;;;;5016263;28;19979;-88
2022/12/14 04:40:19;;;;;;;;;;;-0.10;75.80;;;;;;5048848;28;19925;-88
2022/12/14 04:42:51;;;;;;;;;;;-0.10;75.70;;;;;;5031931;28;19921;-87
2022/12/14 04:45:23;;;;;;;;;;;-0.10;75.70;;;;;;5032102;28;19995;-87
2022/12/14 04:47:58;;;;;;;;;;;-0.20;75.70;;;;;;5048257;28;20742;-88
2022/12/14 04:50:26;;;;;;;;;;;-0.20;75.70;;;;;;5031563;28;19986;-88
2022/12/14 04:52:55;;;;;;;;;;;-0.20;75.70;;;;;;5032391;28;20015;-87
2022/12/14 04:55:20;;;;;;;;;;;-0.20;75.80;;;;;;5048751;28;20435;-87
2022/12/14 04:57:53;;;;;;;;;;;-0.20;75.70;;;;;;5048534;28;19983;-87
2022/12/14 05:00:19;;;;;;;;;;;-0.30;75.60;;;;;;5031803;28;19921;-88
2022/12/14 05:03:03;;;;;;;;;;;-0.30;75.70;;;;;;5031437;28;19974;-87
2022/12/14 05:05:28;;;;;;;;;;;-0.30;75.80;;;;;;5032021;28;19931;-87
2022/12/14 05:08:13;;;;;;;;;;;-0.20;75.70;;;;;;5048197;28;19921;-87
2022/12/14 05:11:01;;;;;;;;;;;-0.20;75.70;;;;;;5031862;28;19975;-87
2022/12/14 05:13:53;;;;;;;;;;;-0.20;75.60;;;;;;5028959;28;19921;-87
2022/12/14 05:16:20;;;;;;;;;;;-0.10;75.60;;;;;;5030586;28;19921;-87
2022/12/14 05:18:46;;;;;;;;;;;-0.10;75.40;;;;;;5032042;28;19921;-87
2022/12/14 05:23:58;;;;;;;;;;;0.00;75.20;;;;;;5045584;28;19951;-87
2022/12/14 05:26:24;;;;;;;;;;;0.00;75.10;;;;;;5034271;28;19921;-87
2022/12/14 05:28:49;;;;;;;;;;;0.00;75.00;;;;;;5030421;28;19925;-87
2022/12/14 05:31:15;;;;;;;;;;;0.10;75.00;;;;;;5014992;28;20016;-87
2022/12/14 05:33:40;;;;;;;;;;;0.00;74.90;;;;;;5031468;28;19921;-87
2022/12/14 05:36:06;;;;;;;;;;;0.10;74.90;;;;;;5015256;28;19925;-88
2022/12/14 05:38:32;;;;;;;;;;;0.10;74.90;;;;;;5031094;28;19924;-88
2022/12/14 05:40:57;;;;;;;;;;;0.10;74.90;;;;;;5031336;28;19929;-88
2022/12/14 05:43:23;;;;;;;;;;;0.10;74.80;;;;;;5030708;28;20286;-87
2022/12/14 05:45:48;;;;;;;;;;;0.10;74.70;;;;;;5030724;28;19921;-88
2022/12/14 05:48:14;;;;;;;;;;;0.10;74.60;;;;;;5030576;28;19992;-88
2022/12/14 05:50:39;;;;;;;;;;;0.10;74.70;;;;;;5030909;28;20011;-88
2022/12/14 05:53:07;;;;;;;;;;;0.10;74.80;;;;;;5030560;28;19921;-87
2022/12/14 05:55:32;;;;;;;;;;;0.00;74.70;;;;;;5014553;28;20015;-87
2022/12/14 05:57:58;;;;;;;;;;;0.00;74.70;;;;;;5030508;28;20023;-87
2022/12/14 06:00:23;;;;;;;;;;;0.00;74.80;;;;;;5046867;28;20309;-87
2022/12/14 06:02:48;;;;;;;;;;;0.00;74.80;;;;;;5030337;28;19921;-87
2022/12/14 06:05:14;;;;;;;;;;;0.00;75.30;;;;;;5030084;28;19925;-88
2022/12/14 06:07:39;;;;;;;;;;;0.00;74.80;;;;;;5030401;28;19928;-88
2022/12/14 06:10:05;;;;;;;;;;;0.00;74.80;;;;;;5030100;28;19924;-87
2022/12/14 06:12:31;;;;;;;;;;;0.00;74.90;;;;;;5030817;28;20408;-89
2022/12/14 06:14:56;;;;;;;;;;;0.00;74.90;;;;;;5029642;28;20374;-88
2022/12/14 06:17:22;;;;;;;;;;;0.00;74.90;;;;;;5030453;28;19943;-89
2022/12/14 06:19:47;;;;;;;;;;;0.00;75.40;;;;;;5036274;28;19920;-90
2022/12/14 06:22:13;;;;;;;;;;;0.00;74.90;;;;;;5068726;28;19936;-88
2022/12/14 06:24:38;;;;;;;;;;;0.00;74.90;;;;;;5050318;28;20356;-89
2022/12/14 06:27:04;;;;;;;;;;;0.00;74.80;;;;;;5028217;28;19923;-88
2022/12/14 06:29:29;;;;;;;;;;;0.10;74.70;;;;;;5019287;28;19921;-88
2022/12/14 06:31:55;;;;;;;;;;;0.10;74.70;;;;;;5012697;28;19928;-88
2022/12/14 06:34:20;;;;;;;;;;;0.10;74.70;;;;;;5011436;28;19922;-88
2022/12/14 06:36:46;;;;;;;;;;;0.10;74.70;;;;;;5011815;28;20314;-87
2022/12/14 06:39:13;;;;;;;;;;;0.10;74.70;;;;;;5011526;28;19978;-88
2022/12/14 06:41:39;;;;;;;;;;;0.10;74.60;;;;;;5010069;28;19925;-88
2022/12/14 06:44:07;;;;;;;;;;;0.10;74.60;;;;;;5010106;28;19925;-88
2022/12/14 06:46:33;;;;;;;;;;;0.10;74.60;;;;;;5010045;28;19925;-88
2022/12/14 06:48:58;;;;;;;;;;;0.10;74.70;;;;;;5010070;28;19932;-88
2022/12/14 06:51:24;;;;;;;;;;;0.00;74.60;;;;;;5009641;28;19936;-88
2022/12/14 06:53:51;;;;;;;;;;;0.00;74.70;;;;;;5009547;28;19921;-88
2022/12/14 06:56:17;;;;;;;;;;;0.10;74.80;;;;;;5010194;28;19964;-88
2022/12/14 06:58:43;;;;;;;;;;;0.10;74.60;;;;;;5010106;28;19972;-88
2022/12/14 07:01:10;;;;;;;;;;;0.20;74.50;;;;;;5009599;28;19969;-88
2022/12/14 07:03:36;;;;;;;;;;;0.20;74.40;;;;;;5009714;28;19928;-88
2022/12/14 07:06:02;;;;;;;;;;;0.20;74.30;;;;;;5009366;28;20020;-88
2022/12/14 07:08:29;;;;;;;;;;;0.20;74.00;;;;;;5009390;28;19968;-87
2022/12/14 07:10:54;;;;;;;;;;;0.10;74.00;;;;;;5009338;28;19922;-88
2022/12/14 07:13:20;;;;;;;;;;;0.00;74.20;;;;;;5009669;28;19921;-87
2022/12/14 07:15:53;;;;;;;;;;;-0.10;74.50;;;;;;5009546;28;19925;-88
2022/12/14 07:18:19;;;;;;;;;;;-0.10;74.60;;;;;;5009875;28;20272;-88
2022/12/14 07:20:58;;;;;;;;;;;-0.10;74.60;;;;;;5009752;28;19983;-89
2022/12/14 07:23:24;;;;;;;;;;;-0.20;74.60;;;;;;5009267;28;19925;-88
2022/12/14 07:25:50;;;;;;;;;;;-0.20;74.60;;;;;;5009608;28;19983;-89
2022/12/14 07:28:15;;;;;;;;;;;-0.30;74.60;;;;;;5010059;28;20338;-88
2022/12/14 07:30:41;;;;;;;;;;;-0.30;74.70;;;;;;5009685;28;20329;-88
2022/12/14 07:33:06;;;;;;;;;;;-0.30;74.70;;;;;;5009373;28;19929;-89
2022/12/14 07:35:32;;;;;;;;;;;-0.30;74.80;;;;;;5009584;28;19921;-89
2022/12/14 07:37:57;;;;;;;;;;;-0.20;74.70;;;;;;5009440;28;19925;-89
2022/12/14 07:40:23;;;;;;;;;;;-0.20;74.60;;;;;;5009959;28;19925;-89
2022/12/14 07:42:49;;;;;;;;;;;-0.20;74.50;;;;;;5009666;28;19968;-89
2022/12/14 07:45:15;;;;;;;;;;;-0.10;74.40;;;;;;5009960;28;20449;-88
2022/12/14 07:47:40;;;;;;;;;;;-0.10;74.20;;;;;;5009954;28;19921;-88
2022/12/14 07:50:06;;;;;;;;;;;-0.10;74.10;;;;;;5009293;28;19925;-88
2022/12/14 07:52:31;;;;;;;;;;;-0.10;74.60;;;;;;5011341;28;19925;-88
2022/12/14 07:54:57;;;;;;;;;;;-0.20;73.90;;;;;;5014033;28;20657;-89
2022/12/14 07:57:22;;;;;;;;;;;-0.20;74.00;;;;;;5013344;28;20303;-87
2022/12/14 07:59:48;;;;;;;;;;;-0.20;74.10;;;;;;4996879;28;19921;-88
2022/12/14 08:02:13;;;;;;;;;;;-0.30;74.00;;;;;;5013867;28;19944;-89
2022/12/14 08:04:39;;;;;;;;;;;-0.40;74.00;;;;;;5014759;28;19925;-90
2022/12/14 08:07:04;;;;;;;;;;;-0.50;74.20;;;;;;5014397;28;19922;-89
2022/12/14 08:09:30;;;;;;;;;;;-0.50;74.30;;;;;;5014018;28;19921;-89
2022/12/14 08:11:56;;;;;;;;;;;-0.50;74.50;;;;;;5013914;28;19926;-89
2022/12/14 08:14:21;;;;;;;;;;;-0.50;74.60;;;;;;5013716;28;19926;-88
2022/12/14 08:16:47;;;;;;;;;;;-0.50;74.60;;;;;;5014075;28;20048;-89
2022/12/14 08:19:13;;;;;;;;;;;-0.50;74.50;;;;;;5014066;28;19921;-89
2022/12/14 08:21:39;;;;;;;;;;;-0.40;74.40;;;;;;4997888;28;20319;-89
2022/12/14 08:24:05;;;;;;;;;;;-0.30;74.20;;;;;;5014221;28;19937;-89
2022/12/14 08:26:31;;;;;;;;;;;-0.30;74.10;;;;;;4998161;28;19976;-89
2022/12/14 08:28:56;;;;;;;;;;;-0.20;74.00;;;;;;5014023;28;20326;-88
2022/12/14 08:31:23;;;;;;;;;;;-0.20;73.80;;;;;;4997555;28;20044;-88
2022/12/14 08:33:49;;;;;;;;;;;-0.20;73.70;;;;;;4996566;28;19925;-88
2022/12/14 08:36:18;;;;;;;;;;;-0.20;73.80;;;;;;4996886;28;19921;-88
2022/12/14 08:38:44;;;;;;;;;;;-0.20;73.80;;;;;;5013388;28;20383;-88
2022/12/14 08:41:11;;;;;;;;;;;-0.20;73.80;;;;;;5013251;28;19972;-89
2022/12/14 08:43:36;;;;;;;;;;;-0.20;73.80;;;;;;5013125;28;19925;-88
2022/12/14 08:46:02;;;;;;;;;;;-0.20;73.80;;;;;;5013499;28;19932;-89
2022/12/14 08:48:28;;;;;;;;;;;-0.10;73.70;;;;;;5013576;28;19922;-88
2022/12/14 08:50:54;;;;;;;;;;;-0.10;73.60;;;;;;5013094;28;20031;-89
2022/12/14 08:53:20;;;;;;;;;;;-0.10;73.50;;;;;;5013148;28;20441;-89
2022/12/14 08:55:45;;;;;;;;;;;0.00;73.50;;;;;;5013584;28;20321;-89
2022/12/14 08:58:11;;;;;;;;;;;0.00;73.40;;;;;;5012700;28;19922;-90
2022/12/14 09:00:37;;;;;;;;;;;0.00;73.40;;;;;;5013151;28;19921;-89
2022/12/14 09:03:03;;;;;;;;;;;0.00;73.40;;;;;;5017711;28;20345;-90
2022/12/14 09:05:29;;;;;;;;;;;0.10;73.40;;;;;;5016261;28;19925;-90
2022/12/14 09:07:54;;;;;;;;;;;0.20;73.30;;;;;;5033004;28;19928;-89
2022/12/14 09:10:20;;;;;;;;;;;0.20;73.20;;;;;;5032602;28;19932;-89
2022/12/14 09:12:45;;;;;;;;;;;0.30;73.00;;;;;;5033192;28;19932;-90
2022/12/14 09:15:11;;;;;;;;;;;0.30;72.80;;;;;;5016303;28;19972;-90
2022/12/14 09:17:36;;;;;;;;;;;0.30;72.80;;;;;;5033531;28;20007;-89
2022/12/14 09:20:04;;;;;;;;;;;0.40;72.80;;;;;;5033657;28;19921;-88
2022/12/14 09:22:30;;;;;;;;;;;0.30;72.80;;;;;;5033318;28;19921;-90
2022/12/14 09:24:55;;;;;;;;;;;0.20;73.30;;;;;;5033793;28;19927;-90
2022/12/14 09:27:21;;;;;;;;;;;0.30;73.50;;;;;;5033762;28;19928;-90
2022/12/14 09:29:48;;;;;;;;;;;0.40;73.40;;;;;;5033468;28;19925;-90
2022/12/14 09:32:13;;;;;;;;;;;0.40;73.20;;;;;;5015495;28;19971;-90
2022/12/14 09:34:39;;;;;;;;;;;0.60;73.00;;;;;;5016364;28;19979;-89
2022/12/14 09:37:07;;;;;;;;;;;0.70;72.90;;;;;;5031665;28;20293;-90
2022/12/14 09:39:33;;;;;;;;;;;0.60;72.80;;;;;;5032660;28;19921;-89
2022/12/14 09:41:58;;;;;;;;;;;0.50;73.00;;;;;;5031203;28;20521;-89
2022/12/14 09:44:47;;;;;;;;;;;0.50;73.30;;;;;;5049234;28;20297;-90
2022/12/14 09:47:30;;;;;;;;;;;0.50;73.40;;;;;;5014603;28;19921;-90
2022/12/14 09:49:55;;;;;;;;;;;0.60;73.30;;;;;;5049529;28;19927;-90
2022/12/14 09:52:24;;;;;;;;;;;0.70;73.20;;;;;;5032886;28;19921;-89
2022/12/14 09:54:51;;;;;;;;;;;0.90;73.00;;;;;;5016228;28;19921;-90
2022/12/14 09:57:24;;;;;;;;;;;1.00;72.70;;;;;;5049968;28;19921;-90
2022/12/14 09:59:51;;;;;;;;;;;1.00;72.40;;;;;;5033330;28;20289;-90
2022/12/14 10:02:36;;;;;;;;;;;1.10;72.40;;;;;;5032884;28;19921;-90
2022/12/14 10:05:13;;;;;;;;;;;1.20;72.30;;;;;;5033710;28;19928;-90
2022/12/14 10:07:47;;;;;;;;;;;1.30;72.10;;;;;;5033436;28;20123;-90
2022/12/14 10:10:48;;;;;;;;;;;1.40;72.10;;;;;;5050139;28;19921;-89
2022/12/14 10:13:46;;;;;;;;;;;1.50;71.90;;;;;;4980067;28;20422;-90
2022/12/14 10:16:16;;;;;;;;;;;1.50;71.80;;;;;;4989107;28;19928;-90
2022/12/14 10:18:51;;;;;;;;;;;1.60;71.70;;;;;;5036974;28;19928;-91
2022/12/14 10:21:21;;;;;;;;;;;1.60;71.90;;;;;;5068576;28;19970;-90
2022/12/14 10:23:56;;;;;;;;;;;1.60;72.00;;;;;;5036053;28;19972;-90
2022/12/14 10:26:22;;;;;;;;;;;1.70;71.90;;;;;;5042528;28;20309;-89
2022/12/14 10:28:49;;;;;;;;;;;1.70;71.80;;;;;;5016905;28;20546;-89
2022/12/14 10:31:18;;;;;;;;;;;1.70;71.70;;;;;;5033439;28;19921;-89
2022/12/14 10:33:44;;;;;;;;;;;1.70;71.90;;;;;;5021736;28;19926;-88
2022/12/14 10:36:28;;;;;;;;;;;1.70;72.20;;;;;;5003534;28;20015;-90
2022/12/14 10:38:58;;;;;;;;;;;1.70;72.20;;;;;;5029297;28;20290;-90
2022/12/14 10:41:38;;;;;;;;;;;1.70;72.30;;;;;;5023513;28;19931;-89
2022/12/14 10:44:21;;;;;;;;;;;1.80;72.20;;;;;;5003019;28;20008;-90
2022/12/14 10:47:22;;;;;;;;;;;1.80;72.00;;;;;;5021915;28;19925;-91
2022/12/14 10:49:52;;;;;;;;;;;1.80;72.10;;;;;;4943024;28;19923;-90
2022/12/14 10:52:18;;;;;;;;;;;1.90;72.20;;;;;;5014316;28;19921;-91
2022/12/14 10:54:48;;;;;;;;;;;1.90;72.30;;;;;;5015558;28;20011;-91
2022/12/14 10:57:21;;;;;;;;;;;1.80;72.50;;;;;;5032644;28;19921;-91
2022/12/14 10:59:46;;;;;;;;;;;1.80;72.70;;;;;;5015626;28;19921;-91
2022/12/14 11:02:15;;;;;;;;;;;1.90;72.50;;;;;;5014275;28;19967;-90
2022/12/14 11:04:47;;;;;;;;;;;2.00;72.30;;;;;;5032096;28;19967;-91
2022/12/14 11:07:14;;;;;;;;;;;2.10;72.10;;;;;;5031914;28;19925;-90
2022/12/14 11:09:40;;;;;;;;;;;2.10;72.10;;;;;;5032405;28;19975;-91
2022/12/14 11:12:12;;;;;;;;;;;2.10;72.20;;;;;;5015519;28;19927;-91
2022/12/14 11:14:48;;;;;;;;;;;2.10;72.40;;;;;;5032068;28;19943;-90
2022/12/14 11:17:28;;;;;;;;;;;2.20;72.40;;;;;;5032216;28;19991;-91
2022/12/14 11:20:13;;;;;;;;;;;2.30;72.20;;;;;;5031448;28;20431;-91
2022/12/14 11:22:44;;;;;;;;;;;2.30;72.00;;;;;;5015192;28;19921;-90
2022/12/14 11:25:27;;;;;;;;;;;2.30;72.10;;;;;;5031974;28;20263;-90
2022/12/14 11:27:53;;;;;;;;;;;2.30;72.30;;;;;;5031334;28;19927;-91
2022/12/14 11:30:18;;;;;;;;;;;2.40;72.20;;;;;;5014304;28;19920;-90
2022/12/14 11:32:47;;;;;;;;;;;2.40;72.20;;;;;;5031262;28;19975;-90
2022/12/14 11:35:19;;;;;;;;;;;2.40;72.30;;;;;;5031020;28;19921;-90
2022/12/14 11:37:47;;;;;;;;;;;2.40;72.20;;;;;;5031622;28;20055;-90
2022/12/14 11:40:24;;;;;;;;;;;2.50;72.20;;;;;;5031202;28;20349;-90
2022/12/14 11:42:50;;;;;;;;;;;2.60;72.00;;;;;;5031243;28;19927;-90
2022/12/14 11:45:25;;;;;;;;;;;2.70;71.80;;;;;;5014793;28;19928;-90
2022/12/14 11:48:09;;;;;;;;;;;2.70;71.80;;;;;;5031322;28;19928;-90
2022/12/14 11:50:34;;;;;;;;;;;2.80;71.80;;;;;;5030765;28;19977;-90
2022/12/14 11:53:05;;;;;;;;;;;2.80;71.80;;;;;;5031284;28;19992;-90
2022/12/14 11:55:32;;;;;;;;;;;2.80;71.90;;;;;;5030711;28;19921;-90
2022/12/14 11:57:58;;;;;;;;;;;2.80;72.00;;;;;;5028955;28;19929;-89
2022/12/14 12:00:33;;;;;;;;;;;2.90;72.00;;;;;;5026236;28;20374;-89
2022/12/14 12:02:59;;;;;;;;;;;2.90;71.90;;;;;;5014212;28;19999;-89
2022/12/14 12:05:25;;;;;;;;;;;2.90;72.10;;;;;;5014361;28;19975;-90
2022/12/14 12:07:53;;;;;;;;;;;2.90;72.20;;;;;;5030960;28;20020;-90
2022/12/14 12:10:23;;;;;;;;;;;3.00;72.20;;;;;;5030647;28;20297;-90
2022/12/14 12:13:03;;;;;;;;;;;3.00;72.20;;;;;;5030714;28;20337;-89
2022/12/14 12:15:29;;;;;;;;;;;3.00;72.10;;;;;;5046751;28;20317;-88
2022/12/14 12:17:57;;;;;;;;;;;3.00;72.20;;;;;;5047665;28;19925;-89
2022/12/14 12:20:34;;;;;;;;;;;3.10;72.10;;;;;;5051512;28;19932;-89
2022/12/14 12:23:08;;;;;;;;;;;3.10;72.00;;;;;;5052818;28;19925;-90
2022/12/14 12:25:34;;;;;;;;;;;3.10;72.10;;;;;;5036652;28;20293;-90
2022/12/14 12:28:21;;;;;;;;;;;3.10;72.20;;;;;;5031217;28;20398;-91
2022/12/14 12:30:49;;;;;;;;;;;3.10;72.20;;;;;;5032272;28;19920;-90
2022/12/14 12:33:30;;;;;;;;;;;3.20;72.20;;;;;;5032638;28;20278;-90
2022/12/14 12:36:01;;;;;;;;;;;3.30;72.00;;;;;;5049164;28;19921;-91
2022/12/14 12:38:26;;;;;;;;;;;3.30;71.80;;;;;;5049506;28;20011;-90
2022/12/14 12:40:59;;;;;;;;;;;3.40;71.90;;;;;;5050777;28;20020;-89
2022/12/14 12:43:27;;;;;;;;;;;3.40;71.90;;;;;;5033639;28;19929;-89
2022/12/14 12:45:58;;;;;;;;;;;3.40;71.90;;;;;;5033748;28;19925;-89
2022/12/14 12:48:29;;;;;;;;;;;3.40;71.90;;;;;;5017206;28;20301;-89
2022/12/14 12:51:04;;;;;;;;;;;3.40;72.10;;;;;;5051132;28;20359;-90
2022/12/14 12:53:33;;;;;;;;;;;3.40;72.30;;;;;;5034348;28;19947;-90
2022/12/14 12:56:37;;;;;;;;;;;3.40;72.40;;;;;;5032931;28;19925;-90
2022/12/14 12:59:03;;;;;;;;;;;3.40;72.40;;;;;;4994680;28;20426;-90
2022/12/14 13:01:32;;;;;;;;;;;3.60;72.50;;;;;;5011321;28;19979;-90
2022/12/14 13:04:01;;;;;;;;;;;3.60;72.20;;;;;;5009270;28;19929;-90
2022/12/14 13:06:29;;;;;;;;;;;3.60;72.10;;;;;;5030610;28;20399;-90
2022/12/14 13:09:00;;;;;;;;;;;3.70;72.00;;;;;;5030225;28;19921;-90
2022/12/14 13:11:29;;;;;;;;;;;3.70;71.90;;;;;;5029459;28;19963;-90
2022/12/14 13:13:56;;;;;;;;;;;3.80;71.90;;;;;;5030368;28;19925;-89
2022/12/14 13:16:28;;;;;;;;;;;3.90;71.90;;;;;;5030264;28;19921;-90
2022/12/14 13:18:58;;;;;;;;;;;3.80;71.80;;;;;;5014757;28;19925;-90
2022/12/14 13:21:34;;;;;;;;;;;3.80;72.10;;;;;;5031994;28;20413;-90
2022/12/14 13:24:01;;;;;;;;;;;3.80;72.00;;;;;;5031767;28;21159;-90
2022/12/14 13:26:26;;;;;;;;;;;3.80;72.20;;;;;;5032006;28;19983;-90
2022/12/14 13:28:59;;;;;;;;;;;3.70;72.40;;;;;;5048186;28;20385;-90
2022/12/14 13:31:25;;;;;;;;;;;3.70;72.40;;;;;;5014584;28;20389;-89
2022/12/14 13:33:56;;;;;;;;;;;3.70;72.60;;;;;;5048000;28;19921;-89
2022/12/14 13:36:33;;;;;;;;;;;3.70;72.70;;;;;;5031328;28;19925;-89
2022/12/14 13:38:59;;;;;;;;;;;3.80;72.60;;;;;;5048345;28;19928;-90
2022/12/14 13:41:29;;;;;;;;;;;3.90;72.40;;;;;;5047618;28;19920;-90
2022/12/14 13:44:01;;;;;;;;;;;3.90;72.20;;;;;;5030758;28;19925;-89
2022/12/14 13:46:28;;;;;;;;;;;4.00;72.20;;;;;;5031161;28;20012;-89
2022/12/14 13:48:59;;;;;;;;;;;4.10;72.80;;;;;;5030314;28;19925;-89
2022/12/14 13:51:26;;;;;;;;;;;4.20;71.90;;;;;;5013565;28;20582;-90
2022/12/14 13:53:55;;;;;;;;;;;4.30;71.80;;;;;;5013708;28;20394;-90
2022/12/14 13:56:23;;;;;;;;;;;4.40;71.60;;;;;;5031013;28;19946;-90
2022/12/14 13:58:49;;;;;;;;;;;4.50;71.50;;;;;;5014776;28;20049;-90
2022/12/14 14:01:35;;;;;;;;;;;4.50;71.50;;;;;;5030835;28;19960;-90
2022/12/14 14:04:09;;;;;;;;;;;4.60;71.40;;;;;;5030757;28;19929;-89
2022/12/14 14:06:42;;;;;;;;;;;4.50;71.90;;;;;;5047747;28;19970;-90
2022/12/14 14:09:29;;;;;;;;;;;4.50;72.00;;;;;;5047572;28;20251;-90
2022/12/14 14:11:55;;;;;;;;;;;4.60;72.00;;;;;;5014413;28;19925;-90
2022/12/14 14:14:28;;;;;;;;;;;4.60;72.00;;;;;;5030408;28;19925;-90
2022/12/14 14:16:55;;;;;;;;;;;4.60;72.00;;;;;;5047215;28;19925;-89
2022/12/14 14:19:22;;;;;;;;;;;4.70;71.90;;;;;;5030669;28;19921;-90
2022/12/14 14:22:07;;;;;;;;;;;4.80;71.80;;;;;;5030849;28;20374;-89
2022/12/14 14:24:51;;;;;;;;;;;4.80;71.60;;;;;;5013622;28;19944;-90
2022/12/14 14:27:22;;;;;;;;;;;4.80;71.90;;;;;;5013847;28;19921;-90
2022/12/14 14:29:49;;;;;;;;;;;4.70;71.90;;;;;;5014679;28;19928;-90
2022/12/14 14:32:24;;;;;;;;;;;4.70;72.20;;;;;;5030379;28;19968;-90
2022/12/14 14:34:50;;;;;;;;;;;4.70;72.20;;;;;;5047678;28;20370;-90
2022/12/14 14:37:18;;;;;;;;;;;4.60;72.30;;;;;;5046828;28;19921;-90
2022/12/14 14:39:44;;;;;;;;;;;4.40;72.60;;;;;;5030158;28;19925;-90
2022/12/14 14:42:17;;;;;;;;;;;4.30;72.90;;;;;;5014311;28;19927;-90
2022/12/14 14:44:54;;;;;;;;;;;4.20;73.40;;;;;;5013796;28;19925;-90
2022/12/14 14:47:22;;;;;;;;;;;4.20;73.40;;;;;;5030487;28;19932;-90
2022/12/14 14:49:54;;;;;;;;;;;4.20;73.40;;;;;;5030310;28;19925;-90
2022/12/14 14:52:38;;;;;;;;;;;4.20;73.30;;;;;;5046606;28;19921;-90
2022/12/14 14:55:23;;;;;;;;;;;4.20;73.20;;;;;;5030005;28;19924;-90
2022/12/14 14:57:56;;;;;;;;;;;4.20;73.00;;;;;;5013598;28;19921;-91